sensor_id;sensor_type;location;lat;lon;timestamp;P1;durP1;ratioP1;P2;durP2;ratioP2
9288;SDS011;4683;50.864;12.086;2022-09-02T00:30:46;2.53;;;2.33;;
9288;SDS011;4683;50.864;12.086;2022-09-02T00:33:14;3.87;;;2.70;;
9288;SDS011;4683;50.864;12.086;2022-09-02T00:35:43;2.87;;;2.67;;
9288;SDS011;4683;50.864;12.086;2022-09-02T00:54:02;3.10;;;2.80;;
9288;SDS011;4683;50.864;12.086;2022-09-02T00:56:32;2.70;;;2.50;;
9288;SDS011;4683;50.864;12.086;2022-09-02T00:59:04;2.73;;;2.50;;
9288;SDS011;4683;50.864;12.086;2022-09-02T01:01:36;2.83;;;2.63;;
9288;SDS011;4683;50.864;12.086;2022-09-02T01:04:05;3.93;;;3.03;;
9288;SDS011;4683;50.864;12.086;2022-09-02T01:06:33;3.63;;;3.27;;
9288;SDS011;4683;50.864;12.086;2022-09-02T01:09:06;4.00;;;2.80;;
9288;SDS011;4683;50.864;12.086;2022-09-02T01:11:40;3.60;;;3.30;;
9288;SDS011;4683;50.864;12.086;2022-09-02T01:14:13;4.10;;;2.83;;
9288;SDS011;4683;50.864;12.086;2022-09-02T01:16:43;4.93;;;3.07;;
9288;SDS011;4683;50.864;12.086;2022-09-02T01:19:17;4.27;;;3.00;;
9288;SDS011;4683;50.864;12.086;2022-09-02T01:21:52;3.00;;;2.77;;
9288;SDS011;4683;50.864;12.086;2022-09-02T01:24:23;2.37;;;2.20;;
9288;SDS011;4683;50.864;12.086;2022-09-02T01:26:56;2.90;;;2.67;;
9288;SDS011;4683;50.864;12.086;2022-09-02T01:29:27;3.07;;;2.83;;
9288;SDS011;4683;50.864;12.086;2022-09-02T01:31:56;3.10;;;2.80;;
9288;SDS011;4683;50.864;12.086;2022-09-02T01:34:27;3.20;;;2.90;;
9288;SDS011;4683;50.864;12.086;2022-09-02T01:36:57;2.80;;;2.50;;
9288;SDS011;4683;50.864;12.086;2022-09-02T01:39:26;3.13;;;2.80;;
9288;SDS011;4683;50.864;12.086;2022-09-02T01:41:54;3.27;;;2.97;;
9288;SDS011;4683;50.864;12.086;2022-09-02T01:44:23;7.67;;;3.20;;
9288;SDS011;4683;50.864;12.086;2022-09-02T01:46:53;3.10;;;2.80;;
9288;SDS011;4683;50.864;12.086;2022-09-02T01:49:22;2.80;;;2.60;;
9288;SDS011;4683;50.864;12.086;2022-09-02T01:51:52;3.30;;;3.00;;
9288;SDS011;4683;50.864;12.086;2022-09-02T01:54:23;3.53;;;2.70;;
9288;SDS011;4683;50.864;12.086;2022-09-02T01:56:51;2.50;;;2.30;;
9288;SDS011;4683;50.864;12.086;2022-09-02T01:59:20;4.07;;;3.20;;
9288;SDS011;4683;50.864;12.086;2022-09-02T02:01:49;3.13;;;2.50;;
9288;SDS011;4683;50.864;12.086;2022-09-02T02:04:18;3.17;;;2.70;;
9288;SDS011;4683;50.864;12.086;2022-09-02T02:06:49;3.33;;;3.00;;
9288;SDS011;4683;50.864;12.086;2022-09-02T02:09:18;3.97;;;2.97;;
9288;SDS011;4683;50.864;12.086;2022-09-02T02:11:48;4.13;;;3.10;;
9288;SDS011;4683;50.864;12.086;2022-09-02T02:14:16;3.20;;;2.90;;
9288;SDS011;4683;50.864;12.086;2022-09-02T02:16:45;3.27;;;2.73;;
9288;SDS011;4683;50.864;12.086;2022-09-02T02:19:14;2.90;;;2.70;;
9288;SDS011;4683;50.864;12.086;2022-09-02T02:21:43;2.97;;;2.60;;
9288;SDS011;4683;50.864;12.086;2022-09-02T02:24:12;3.33;;;3.10;;
9288;SDS011;4683;50.864;12.086;2022-09-02T02:26:41;4.10;;;3.00;;
9288;SDS011;4683;50.864;12.086;2022-09-02T02:29:12;4.83;;;2.73;;
9288;SDS011;4683;50.864;12.086;2022-09-02T02:31:43;3.00;;;2.80;;
9288;SDS011;4683;50.864;12.086;2022-09-02T02:34:12;4.13;;;2.93;;
9288;SDS011;4683;50.864;12.086;2022-09-02T02:36:41;4.90;;;2.80;;
9288;SDS011;4683;50.864;12.086;2022-09-02T02:39:13;3.40;;;3.10;;
9288;SDS011;4683;50.864;12.086;2022-09-02T02:41:43;3.20;;;2.90;;
9288;SDS011;4683;50.864;12.086;2022-09-02T02:44:13;3.70;;;3.10;;
9288;SDS011;4683;50.864;12.086;2022-09-02T02:46:42;3.80;;;3.03;;
9288;SDS011;4683;50.864;12.086;2022-09-02T02:49:10;3.60;;;3.23;;
9288;SDS011;4683;50.864;12.086;2022-09-02T02:51:40;4.03;;;3.20;;
9288;SDS011;4683;50.864;12.086;2022-09-02T02:54:08;4.37;;;3.17;;
9288;SDS011;4683;50.864;12.086;2022-09-02T02:56:39;3.43;;;3.10;;
9288;SDS011;4683;50.864;12.086;2022-09-02T02:59:08;3.27;;;2.97;;
9288;SDS011;4683;50.864;12.086;2022-09-02T03:01:38;3.60;;;3.30;;
9288;SDS011;4683;50.864;12.086;2022-09-02T03:04:06;5.97;;;3.43;;
9288;SDS011;4683;50.864;12.086;2022-09-02T03:06:35;3.17;;;2.60;;
9288;SDS011;4683;50.864;12.086;2022-09-02T03:09:05;3.43;;;3.00;;
9288;SDS011;4683;50.864;12.086;2022-09-02T03:11:33;4.97;;;3.23;;
9288;SDS011;4683;50.864;12.086;2022-09-02T03:14:02;3.40;;;3.20;;
9288;SDS011;4683;50.864;12.086;2022-09-02T03:16:32;3.90;;;3.37;;
9288;SDS011;4683;50.864;12.086;2022-09-02T03:19:03;3.37;;;3.17;;
9288;SDS011;4683;50.864;12.086;2022-09-02T03:21:34;4.07;;;3.10;;
9288;SDS011;4683;50.864;12.086;2022-09-02T03:24:03;5.00;;;3.40;;
9288;SDS011;4683;50.864;12.086;2022-09-02T03:26:31;5.03;;;3.43;;
9288;SDS011;4683;50.864;12.086;2022-09-02T03:29:00;4.17;;;3.10;;
9288;SDS011;4683;50.864;12.086;2022-09-02T03:31:31;4.73;;;3.00;;
9288;SDS011;4683;50.864;12.086;2022-09-02T03:34:03;4.13;;;3.20;;
9288;SDS011;4683;50.864;12.086;2022-09-02T03:36:33;3.57;;;3.27;;
9288;SDS011;4683;50.864;12.086;2022-09-02T03:39:06;3.80;;;3.40;;
9288;SDS011;4683;50.864;12.086;2022-09-02T03:41:35;3.37;;;3.07;;
9288;SDS011;4683;50.864;12.086;2022-09-02T03:44:06;3.67;;;3.30;;
9288;SDS011;4683;50.864;12.086;2022-09-02T03:46:35;4.33;;;3.20;;
9288;SDS011;4683;50.864;12.086;2022-09-02T03:49:05;4.27;;;3.70;;
9288;SDS011;4683;50.864;12.086;2022-09-02T03:51:38;4.13;;;3.63;;
9288;SDS011;4683;50.864;12.086;2022-09-02T03:54:09;3.33;;;3.03;;
9288;SDS011;4683;50.864;12.086;2022-09-02T03:56:38;3.27;;;2.97;;
9288;SDS011;4683;50.864;12.086;2022-09-02T03:59:09;3.37;;;3.10;;
9288;SDS011;4683;50.864;12.086;2022-09-02T04:01:38;3.90;;;3.60;;
9288;SDS011;4683;50.864;12.086;2022-09-02T04:04:08;4.63;;;3.90;;
9288;SDS011;4683;50.864;12.086;2022-09-02T04:06:37;4.83;;;4.30;;
9288;SDS011;4683;50.864;12.086;2022-09-02T04:09:06;4.50;;;4.10;;
9288;SDS011;4683;50.864;12.086;2022-09-02T04:11:37;4.20;;;3.80;;
9288;SDS011;4683;50.864;12.086;2022-09-02T04:14:08;4.10;;;3.80;;
9288;SDS011;4683;50.864;12.086;2022-09-02T04:16:40;4.17;;;3.77;;
9288;SDS011;4683;50.864;12.086;2022-09-02T04:19:11;7.03;;;4.03;;
9288;SDS011;4683;50.864;12.086;2022-09-02T04:21:41;4.50;;;4.07;;
9288;SDS011;4683;50.864;12.086;2022-09-02T04:24:10;6.20;;;4.77;;
9288;SDS011;4683;50.864;12.086;2022-09-02T04:26:39;4.60;;;4.20;;
9288;SDS011;4683;50.864;12.086;2022-09-02T04:29:08;6.03;;;4.33;;
9288;SDS011;4683;50.864;12.086;2022-09-02T04:31:36;4.90;;;4.40;;
9288;SDS011;4683;50.864;12.086;2022-09-02T04:34:05;4.60;;;4.20;;
9288;SDS011;4683;50.864;12.086;2022-09-02T04:36:36;6.00;;;4.60;;
9288;SDS011;4683;50.864;12.086;2022-09-02T04:39:07;5.97;;;4.80;;
9288;SDS011;4683;50.864;12.086;2022-09-02T04:41:38;5.23;;;4.73;;
9288;SDS011;4683;50.864;12.086;2022-09-02T04:44:07;5.20;;;4.70;;
9288;SDS011;4683;50.864;12.086;2022-09-02T04:46:40;6.10;;;5.30;;
9288;SDS011;4683;50.864;12.086;2022-09-02T04:49:18;5.17;;;4.67;;
9288;SDS011;4683;50.864;12.086;2022-09-02T04:51:50;4.60;;;4.20;;
9288;SDS011;4683;50.864;12.086;2022-09-02T04:54:23;5.07;;;4.60;;
9288;SDS011;4683;50.864;12.086;2022-09-02T04:56:53;5.63;;;4.60;;
9288;SDS011;4683;50.864;12.086;2022-09-02T04:59:24;6.43;;;4.63;;
9288;SDS011;4683;50.864;12.086;2022-09-02T05:01:54;5.47;;;4.97;;
9288;SDS011;4683;50.864;12.086;2022-09-02T05:04:22;8.87;;;5.00;;
9288;SDS011;4683;50.864;12.086;2022-09-02T05:06:52;6.17;;;5.23;;
9288;SDS011;4683;50.864;12.086;2022-09-02T05:09:22;6.17;;;5.67;;
9288;SDS011;4683;50.864;12.086;2022-09-02T05:11:51;4.60;;;4.20;;
9288;SDS011;4683;50.864;12.086;2022-09-02T05:14:23;6.33;;;5.37;;
9288;SDS011;4683;50.864;12.086;2022-09-02T05:16:53;5.30;;;4.87;;
9288;SDS011;4683;50.864;12.086;2022-09-02T05:19:23;8.20;;;4.93;;
9288;SDS011;4683;50.864;12.086;2022-09-02T05:21:53;6.00;;;4.80;;
9288;SDS011;4683;50.864;12.086;2022-09-02T05:24:24;6.77;;;5.17;;
9288;SDS011;4683;50.864;12.086;2022-09-02T05:26:52;6.00;;;5.40;;
9288;SDS011;4683;50.864;12.086;2022-09-02T05:29:21;5.90;;;5.30;;
9288;SDS011;4683;50.864;12.086;2022-09-02T05:31:49;7.67;;;5.77;;
9288;SDS011;4683;50.864;12.086;2022-09-02T05:34:18;6.63;;;5.93;;
9288;SDS011;4683;50.864;12.086;2022-09-02T05:36:48;8.20;;;6.23;;
9288;SDS011;4683;50.864;12.086;2022-09-02T05:39:18;5.10;;;4.67;;
9288;SDS011;4683;50.864;12.086;2022-09-02T05:41:47;6.00;;;5.40;;
9288;SDS011;4683;50.864;12.086;2022-09-02T05:44:15;6.13;;;5.53;;
9288;SDS011;4683;50.864;12.086;2022-09-02T05:46:45;4.90;;;4.50;;
9288;SDS011;4683;50.864;12.086;2022-09-02T05:49:13;6.17;;;4.90;;
9288;SDS011;4683;50.864;12.086;2022-09-02T05:51:45;5.73;;;5.07;;
9288;SDS011;4683;50.864;12.086;2022-09-02T05:54:21;5.77;;;5.27;;
9288;SDS011;4683;50.864;12.086;2022-09-02T05:56:56;7.90;;;5.57;;
9288;SDS011;4683;50.864;12.086;2022-09-02T05:59:27;5.60;;;5.10;;
9288;SDS011;4683;50.864;12.086;2022-09-02T06:01:56;5.40;;;4.90;;
9288;SDS011;4683;50.864;12.086;2022-09-02T06:04:25;5.47;;;4.97;;
9288;SDS011;4683;50.864;12.086;2022-09-02T06:06:53;5.17;;;4.77;;
9288;SDS011;4683;50.864;12.086;2022-09-02T06:09:23;5.90;;;4.73;;
9288;SDS011;4683;50.864;12.086;2022-09-02T06:11:52;4.90;;;4.40;;
9288;SDS011;4683;50.864;12.086;2022-09-02T06:14:22;5.53;;;5.03;;
9288;SDS011;4683;50.864;12.086;2022-09-02T06:16:53;5.90;;;4.87;;
9288;SDS011;4683;50.864;12.086;2022-09-02T06:19:23;5.77;;;4.63;;
9288;SDS011;4683;50.864;12.086;2022-09-02T06:21:53;4.83;;;4.33;;
9288;SDS011;4683;50.864;12.086;2022-09-02T06:24:25;5.73;;;4.57;;
9288;SDS011;4683;50.864;12.086;2022-09-02T06:26:59;4.63;;;4.23;;
9288;SDS011;4683;50.864;12.086;2022-09-02T06:29:27;5.93;;;4.80;;
9288;SDS011;4683;50.864;12.086;2022-09-02T06:31:56;5.60;;;5.00;;
9288;SDS011;4683;50.864;12.086;2022-09-02T06:34:24;5.53;;;4.67;;
9288;SDS011;4683;50.864;12.086;2022-09-02T06:36:53;5.30;;;4.80;;
9288;SDS011;4683;50.864;12.086;2022-09-02T06:39:26;5.10;;;4.60;;
9288;SDS011;4683;50.864;12.086;2022-09-02T06:42:08;5.70;;;4.77;;
9288;SDS011;4683;50.864;12.086;2022-09-02T06:44:37;5.70;;;5.20;;
9288;SDS011;4683;50.864;12.086;2022-09-02T06:47:07;6.27;;;4.80;;
9288;SDS011;4683;50.864;12.086;2022-09-02T06:49:35;6.00;;;5.03;;
9288;SDS011;4683;50.864;12.086;2022-09-02T06:52:04;5.13;;;4.10;;
9288;SDS011;4683;50.864;12.086;2022-09-02T06:54:34;5.73;;;5.23;;
9288;SDS011;4683;50.864;12.086;2022-09-02T06:57:03;6.33;;;4.90;;
9288;SDS011;4683;50.864;12.086;2022-09-02T06:59:32;5.70;;;4.87;;
9288;SDS011;4683;50.864;12.086;2022-09-02T07:02:01;4.70;;;4.30;;
9288;SDS011;4683;50.864;12.086;2022-09-02T07:04:29;5.67;;;4.60;;
9288;SDS011;4683;50.864;12.086;2022-09-02T07:07:15;4.73;;;4.43;;
9288;SDS011;4683;50.864;12.086;2022-09-02T07:09:45;5.10;;;4.60;;
9288;SDS011;4683;50.864;12.086;2022-09-02T07:12:14;5.17;;;4.60;;
9288;SDS011;4683;50.864;12.086;2022-09-02T07:14:45;5.93;;;4.70;;
9288;SDS011;4683;50.864;12.086;2022-09-02T07:17:14;8.63;;;4.80;;
9288;SDS011;4683;50.864;12.086;2022-09-02T07:19:46;4.80;;;4.30;;
9288;SDS011;4683;50.864;12.086;2022-09-02T07:22:15;4.87;;;4.47;;
9288;SDS011;4683;50.864;12.086;2022-09-02T07:24:50;4.30;;;3.90;;
9288;SDS011;4683;50.864;12.086;2022-09-02T07:27:18;4.60;;;4.20;;
9288;SDS011;4683;50.864;12.086;2022-09-02T07:29:50;4.60;;;4.20;;
9288;SDS011;4683;50.864;12.086;2022-09-02T07:32:19;5.10;;;4.23;;
9288;SDS011;4683;50.864;12.086;2022-09-02T07:34:48;4.53;;;4.20;;
9288;SDS011;4683;50.864;12.086;2022-09-02T07:37:17;5.30;;;4.60;;
9288;SDS011;4683;50.864;12.086;2022-09-02T07:39:47;4.97;;;4.33;;
9288;SDS011;4683;50.864;12.086;2022-09-02T07:42:17;6.17;;;3.90;;
9288;SDS011;4683;50.864;12.086;2022-09-02T07:44:46;4.27;;;3.87;;
9288;SDS011;4683;50.864;12.086;2022-09-02T07:47:14;4.57;;;4.17;;
9288;SDS011;4683;50.864;12.086;2022-09-02T07:49:43;6.43;;;4.17;;
9288;SDS011;4683;50.864;12.086;2022-09-02T07:52:11;4.50;;;4.10;;
9288;SDS011;4683;50.864;12.086;2022-09-02T07:54:41;5.43;;;4.00;;
9288;SDS011;4683;50.864;12.086;2022-09-02T07:57:11;4.03;;;3.73;;
9288;SDS011;4683;50.864;12.086;2022-09-02T07:59:40;3.83;;;3.50;;
9288;SDS011;4683;50.864;12.086;2022-09-02T08:02:10;4.50;;;4.10;;
9288;SDS011;4683;50.864;12.086;2022-09-02T08:04:39;4.23;;;3.73;;
9288;SDS011;4683;50.864;12.086;2022-09-02T08:07:09;4.90;;;3.63;;
9288;SDS011;4683;50.864;12.086;2022-09-02T08:09:37;3.97;;;3.60;;
9288;SDS011;4683;50.864;12.086;2022-09-02T08:12:07;4.07;;;3.60;;
9288;SDS011;4683;50.864;12.086;2022-09-02T08:14:37;3.97;;;3.67;;
9288;SDS011;4683;50.864;12.086;2022-09-02T08:17:05;4.63;;;3.60;;
9288;SDS011;4683;50.864;12.086;2022-09-02T08:19:35;3.40;;;3.10;;
9288;SDS011;4683;50.864;12.086;2022-09-02T08:22:05;3.47;;;3.17;;
9288;SDS011;4683;50.864;12.086;2022-09-02T08:24:34;4.37;;;3.20;;
9288;SDS011;4683;50.864;12.086;2022-09-02T08:27:04;6.50;;;4.23;;
9288;SDS011;4683;50.864;12.086;2022-09-02T08:29:37;3.63;;;3.33;;
9288;SDS011;4683;50.864;12.086;2022-09-02T08:32:07;3.73;;;3.03;;
9288;SDS011;4683;50.864;12.086;2022-09-02T08:34:36;3.30;;;3.00;;
9288;SDS011;4683;50.864;12.086;2022-09-02T08:37:04;3.37;;;2.97;;
9288;SDS011;4683;50.864;12.086;2022-09-02T08:39:33;3.23;;;2.90;;
9288;SDS011;4683;50.864;12.086;2022-09-02T08:42:04;4.50;;;3.00;;
9288;SDS011;4683;50.864;12.086;2022-09-02T08:44:43;3.33;;;2.33;;
9288;SDS011;4683;50.864;12.086;2022-09-02T08:47:14;2.70;;;2.37;;
9288;SDS011;4683;50.864;12.086;2022-09-02T08:49:50;4.80;;;2.53;;
9288;SDS011;4683;50.864;12.086;2022-09-02T08:52:27;9.43;;;3.10;;
9288;SDS011;4683;50.864;12.086;2022-09-02T08:55:05;3.00;;;2.80;;
9288;SDS011;4683;50.864;12.086;2022-09-02T08:57:37;3.43;;;2.40;;
9288;SDS011;4683;50.864;12.086;2022-09-02T09:00:17;3.40;;;2.70;;
9288;SDS011;4683;50.864;12.086;2022-09-02T09:02:48;3.13;;;2.60;;
9288;SDS011;4683;50.864;12.086;2022-09-02T09:05:30;2.27;;;1.67;;
9288;SDS011;4683;50.864;12.086;2022-09-02T09:08:11;2.17;;;1.70;;
9288;SDS011;4683;50.864;12.086;2022-09-02T09:10:54;1.60;;;1.50;;
9288;SDS011;4683;50.864;12.086;2022-09-02T09:16:32;3.57;;;2.50;;
9288;SDS011;4683;50.864;12.086;2022-09-02T09:19:10;4.90;;;3.10;;
9288;SDS011;4683;50.864;12.086;2022-09-02T09:21:41;1.90;;;1.60;;
9288;SDS011;4683;50.864;12.086;2022-09-02T09:24:17;2.53;;;2.30;;
9288;SDS011;4683;50.864;12.086;2022-09-02T09:26:55;2.53;;;1.60;;
9288;SDS011;4683;50.864;12.086;2022-09-02T09:29:43;3.70;;;2.00;;
9288;SDS011;4683;50.864;12.086;2022-09-02T09:32:24;4.20;;;1.63;;
9288;SDS011;4683;50.864;12.086;2022-09-02T09:34:58;1.87;;;1.10;;
9288;SDS011;4683;50.864;12.086;2022-09-02T09:37:34;1.70;;;1.60;;
9288;SDS011;4683;50.864;12.086;2022-09-02T09:40:22;2.83;;;1.63;;
9288;SDS011;4683;50.864;12.086;2022-09-02T09:43:11;1.83;;;1.30;;
9288;SDS011;4683;50.864;12.086;2022-09-02T09:45:44;1.97;;;1.57;;
9288;SDS011;4683;50.864;12.086;2022-09-02T09:48:22;2.10;;;1.60;;
9288;SDS011;4683;50.864;12.086;2022-09-02T09:54:24;1.80;;;1.50;;
9288;SDS011;4683;50.864;12.086;2022-09-02T09:56:54;1.77;;;1.20;;
9288;SDS011;4683;50.864;12.086;2022-09-02T09:59:40;1.77;;;1.43;;
9288;SDS011;4683;50.864;12.086;2022-09-02T10:02:17;3.83;;;2.10;;
9288;SDS011;4683;50.864;12.086;2022-09-02T10:04:52;3.57;;;2.30;;
9288;SDS011;4683;50.864;12.086;2022-09-02T10:07:36;2.80;;;1.70;;
9288;SDS011;4683;50.864;12.086;2022-09-02T10:10:08;4.83;;;3.53;;
9288;SDS011;4683;50.864;12.086;2022-09-02T10:12:45;4.03;;;1.80;;
9288;SDS011;4683;50.864;12.086;2022-09-02T10:15:17;5.80;;;3.60;;
9288;SDS011;4683;50.864;12.086;2022-09-02T10:17:54;4.17;;;2.60;;
9288;SDS011;4683;50.864;12.086;2022-09-02T10:20:38;1.83;;;1.73;;
9288;SDS011;4683;50.864;12.086;2022-09-02T10:23:27;2.23;;;1.70;;
9288;SDS011;4683;50.864;12.086;2022-09-02T10:26:21;2.77;;;2.10;;
9288;SDS011;4683;50.864;12.086;2022-09-02T10:29:20;2.80;;;1.70;;
9288;SDS011;4683;50.864;12.086;2022-09-02T10:32:21;2.80;;;1.77;;
9288;SDS011;4683;50.864;12.086;2022-09-02T10:35:03;1.27;;;1.20;;
9288;SDS011;4683;50.864;12.086;2022-09-02T10:37:45;2.77;;;1.57;;
9288;SDS011;4683;50.864;12.086;2022-09-02T10:40:34;1.20;;;1.20;;
9288;SDS011;4683;50.864;12.086;2022-09-02T10:43:09;1.27;;;1.17;;
9288;SDS011;4683;50.864;12.086;2022-09-02T10:45:52;5.50;;;3.70;;
9288;SDS011;4683;50.864;12.086;2022-09-02T10:48:30;2.23;;;1.83;;
9288;SDS011;4683;50.864;12.086;2022-09-02T10:51:16;2.33;;;1.27;;
9288;SDS011;4683;50.864;12.086;2022-09-02T10:54:01;2.40;;;2.17;;
9288;SDS011;4683;50.864;12.086;2022-09-02T10:56:46;3.27;;;2.60;;
9288;SDS011;4683;50.864;12.086;2022-09-02T10:59:21;3.87;;;1.80;;
9288;SDS011;4683;50.864;12.086;2022-09-02T11:01:56;2.40;;;2.20;;
9288;SDS011;4683;50.864;12.086;2022-09-02T11:04:33;1.30;;;1.03;;
9288;SDS011;4683;50.864;12.086;2022-09-02T11:07:07;1.70;;;1.60;;
9288;SDS011;4683;50.864;12.086;2022-09-02T11:09:44;2.77;;;2.17;;
9288;SDS011;4683;50.864;12.086;2022-09-02T11:12:17;3.63;;;1.67;;
9288;SDS011;4683;50.864;12.086;2022-09-02T11:14:55;1.93;;;1.60;;
9288;SDS011;4683;50.864;12.086;2022-09-02T11:17:34;1.20;;;1.10;;
9288;SDS011;4683;50.864;12.086;2022-09-02T11:20:10;1.70;;;1.60;;
9288;SDS011;4683;50.864;12.086;2022-09-02T11:22:51;2.33;;;1.13;;
9288;SDS011;4683;50.864;12.086;2022-09-02T11:25:26;3.27;;;2.87;;
9288;SDS011;4683;50.864;12.086;2022-09-02T11:28:02;2.23;;;1.90;;
9288;SDS011;4683;50.864;12.086;2022-09-02T11:30:48;2.17;;;1.60;;
9288;SDS011;4683;50.864;12.086;2022-09-02T11:33:25;2.50;;;1.37;;
9288;SDS011;4683;50.864;12.086;2022-09-02T11:35:59;2.47;;;1.40;;
9288;SDS011;4683;50.864;12.086;2022-09-02T11:38:32;2.33;;;1.97;;
9288;SDS011;4683;50.864;12.086;2022-09-02T11:41:21;3.27;;;2.97;;
9288;SDS011;4683;50.864;12.086;2022-09-02T11:44:07;2.57;;;2.17;;
9288;SDS011;4683;50.864;12.086;2022-09-02T11:46:55;2.20;;;1.90;;
9288;SDS011;4683;50.864;12.086;2022-09-02T11:52:52;2.20;;;1.60;;
9288;SDS011;4683;50.864;12.086;2022-09-02T11:55:32;1.63;;;1.53;;
9288;SDS011;4683;50.864;12.086;2022-09-02T11:58:07;1.50;;;1.20;;
9288;SDS011;4683;50.864;12.086;2022-09-02T12:00:57;5.70;;;4.90;;
9288;SDS011;4683;50.864;12.086;2022-09-02T12:03:32;2.23;;;2.07;;
9288;SDS011;4683;50.864;12.086;2022-09-02T12:06:06;1.27;;;1.17;;
9288;SDS011;4683;50.864;12.086;2022-09-02T12:11:43;1.90;;;1.57;;
9288;SDS011;4683;50.864;12.086;2022-09-02T12:17:44;1.50;;;1.40;;
9288;SDS011;4683;50.864;12.086;2022-09-02T12:30:02;2.90;;;2.23;;
9288;SDS011;4683;50.864;12.086;2022-09-02T12:35:50;1.43;;;1.33;;
9288;SDS011;4683;50.864;12.086;2022-09-02T12:38:29;2.23;;;1.73;;
9288;SDS011;4683;50.864;12.086;2022-09-02T12:41:25;1.20;;;1.10;;
9288;SDS011;4683;50.864;12.086;2022-09-02T12:46:59;1.57;;;0.87;;
9288;SDS011;4683;50.864;12.086;2022-09-02T12:52:44;1.77;;;1.40;;
9288;SDS011;4683;50.864;12.086;2022-09-02T12:55:19;3.03;;;1.23;;
9288;SDS011;4683;50.864;12.086;2022-09-02T12:57:53;1.03;;;1.03;;
9288;SDS011;4683;50.864;12.086;2022-09-02T13:00:35;1.07;;;0.80;;
9288;SDS011;4683;50.864;12.086;2022-09-02T13:03:24;1.30;;;1.20;;
9288;SDS011;4683;50.864;12.086;2022-09-02T13:06:45;2.07;;;1.30;;
9288;SDS011;4683;50.864;12.086;2022-09-02T13:09:57;1.17;;;1.07;;
9288;SDS011;4683;50.864;12.086;2022-09-02T13:16:32;2.17;;;2.00;;
9288;SDS011;4683;50.864;12.086;2022-09-02T13:22:42;2.00;;;1.73;;
9288;SDS011;4683;50.864;12.086;2022-09-02T13:28:58;0.70;;;0.70;;
9288;SDS011;4683;50.864;12.086;2022-09-02T13:31:59;1.93;;;1.40;;
9288;SDS011;4683;50.864;12.086;2022-09-02T13:34:39;3.50;;;2.87;;
9288;SDS011;4683;50.864;12.086;2022-09-02T13:40:02;4.27;;;2.30;;
9288;SDS011;4683;50.864;12.086;2022-09-02T13:43:00;2.43;;;1.57;;
9288;SDS011;4683;50.864;12.086;2022-09-02T13:45:43;3.70;;;2.50;;
9288;SDS011;4683;50.864;12.086;2022-09-02T13:48:13;1.93;;;1.50;;
9288;SDS011;4683;50.864;12.086;2022-09-02T13:50:45;3.60;;;3.30;;
9288;SDS011;4683;50.864;12.086;2022-09-02T13:53:20;3.30;;;1.30;;
9288;SDS011;4683;50.864;12.086;2022-09-02T13:55:55;5.43;;;3.50;;
9288;SDS011;4683;50.864;12.086;2022-09-02T13:58:31;2.60;;;1.67;;
9288;SDS011;4683;50.864;12.086;2022-09-02T14:01:16;2.33;;;2.13;;
9288;SDS011;4683;50.864;12.086;2022-09-02T14:03:53;1.50;;;1.40;;
9288;SDS011;4683;50.864;12.086;2022-09-02T14:06:26;2.70;;;2.20;;
9288;SDS011;4683;50.864;12.086;2022-09-02T14:09:00;4.23;;;3.67;;
9288;SDS011;4683;50.864;12.086;2022-09-02T14:11:35;2.47;;;2.10;;
9288;SDS011;4683;50.864;12.086;2022-09-02T14:14:07;1.63;;;1.40;;
9288;SDS011;4683;50.864;12.086;2022-09-02T14:16:44;3.93;;;2.47;;
9288;SDS011;4683;50.864;12.086;2022-09-02T14:19:22;3.17;;;2.00;;
9288;SDS011;4683;50.864;12.086;2022-09-02T14:21:52;3.33;;;3.03;;
9288;SDS011;4683;50.864;12.086;2022-09-02T14:24:23;4.00;;;3.60;;
9288;SDS011;4683;50.864;12.086;2022-09-02T14:26:56;1.67;;;1.37;;
9288;SDS011;4683;50.864;12.086;2022-09-02T14:29:27;2.90;;;2.70;;
9288;SDS011;4683;50.864;12.086;2022-09-02T14:32:09;2.50;;;1.57;;
9288;SDS011;4683;50.864;12.086;2022-09-02T14:34:40;3.93;;;3.30;;
9288;SDS011;4683;50.864;12.086;2022-09-02T14:37:15;2.03;;;1.57;;
9288;SDS011;4683;50.864;12.086;2022-09-02T14:40:06;3.43;;;2.83;;
9288;SDS011;4683;50.864;12.086;2022-09-02T14:42:45;2.50;;;1.87;;
9288;SDS011;4683;50.864;12.086;2022-09-02T14:45:23;2.67;;;2.47;;
9288;SDS011;4683;50.864;12.086;2022-09-02T14:47:59;2.20;;;2.00;;
9288;SDS011;4683;50.864;12.086;2022-09-02T14:50:36;2.77;;;1.37;;
9288;SDS011;4683;50.864;12.086;2022-09-02T14:53:06;1.87;;;1.60;;
9288;SDS011;4683;50.864;12.086;2022-09-02T14:55:38;3.80;;;2.17;;
9288;SDS011;4683;50.864;12.086;2022-09-02T14:58:18;2.93;;;1.80;;
9288;SDS011;4683;50.864;12.086;2022-09-02T15:00:57;2.47;;;2.27;;
9288;SDS011;4683;50.864;12.086;2022-09-02T15:03:29;2.30;;;2.10;;
9288;SDS011;4683;50.864;12.086;2022-09-02T15:06:03;2.73;;;1.60;;
9288;SDS011;4683;50.864;12.086;2022-09-02T15:08:32;3.17;;;2.87;;
9288;SDS011;4683;50.864;12.086;2022-09-02T15:11:00;3.73;;;1.83;;
9288;SDS011;4683;50.864;12.086;2022-09-02T15:13:31;2.53;;;1.50;;
9288;SDS011;4683;50.864;12.086;2022-09-02T15:16:01;3.20;;;2.30;;
9288;SDS011;4683;50.864;12.086;2022-09-02T15:18:31;2.63;;;2.43;;
9288;SDS011;4683;50.864;12.086;2022-09-02T15:20:59;5.17;;;2.70;;
9288;SDS011;4683;50.864;12.086;2022-09-02T15:23:27;2.57;;;1.60;;
9288;SDS011;4683;50.864;12.086;2022-09-02T15:25:56;5.07;;;3.37;;
9288;SDS011;4683;50.864;12.086;2022-09-02T15:28:24;2.23;;;1.87;;
9288;SDS011;4683;50.864;12.086;2022-09-02T15:30:57;1.70;;;1.60;;
9288;SDS011;4683;50.864;12.086;2022-09-02T15:33:27;1.83;;;1.67;;
9288;SDS011;4683;50.864;12.086;2022-09-02T15:36:03;2.30;;;1.33;;
9288;SDS011;4683;50.864;12.086;2022-09-02T15:38:33;1.60;;;1.50;;
9288;SDS011;4683;50.864;12.086;2022-09-02T15:41:12;1.80;;;1.70;;
9288;SDS011;4683;50.864;12.086;2022-09-02T15:43:44;1.97;;;1.77;;
9288;SDS011;4683;50.864;12.086;2022-09-02T15:46:18;1.90;;;1.67;;
9288;SDS011;4683;50.864;12.086;2022-09-02T15:48:51;1.73;;;1.60;;
9288;SDS011;4683;50.864;12.086;2022-09-02T15:51:22;3.13;;;1.50;;
9288;SDS011;4683;50.864;12.086;2022-09-02T15:53:52;3.67;;;1.83;;
9288;SDS011;4683;50.864;12.086;2022-09-02T15:56:23;2.33;;;2.17;;
9288;SDS011;4683;50.864;12.086;2022-09-02T15:58:53;2.97;;;2.20;;
9288;SDS011;4683;50.864;12.086;2022-09-02T16:01:25;3.07;;;2.87;;
9288;SDS011;4683;50.864;12.086;2022-09-02T16:03:55;1.90;;;1.50;;
9288;SDS011;4683;50.864;12.086;2022-09-02T16:06:24;1.50;;;1.40;;
9288;SDS011;4683;50.864;12.086;2022-09-02T16:08:53;2.30;;;1.20;;
9288;SDS011;4683;50.864;12.086;2022-09-02T16:11:22;1.17;;;1.07;;
9288;SDS011;4683;50.864;12.086;2022-09-02T16:13:50;1.83;;;1.30;;
9288;SDS011;4683;50.864;12.086;2022-09-02T16:16:19;1.80;;;1.70;;
9288;SDS011;4683;50.864;12.086;2022-09-02T16:18:50;3.23;;;2.53;;
9288;SDS011;4683;50.864;12.086;2022-09-02T16:21:20;2.00;;;1.90;;
9288;SDS011;4683;50.864;12.086;2022-09-02T16:23:48;2.23;;;1.77;;
9288;SDS011;4683;50.864;12.086;2022-09-02T16:26:21;2.80;;;1.80;;
9288;SDS011;4683;50.864;12.086;2022-09-02T16:28:56;2.73;;;2.53;;
9288;SDS011;4683;50.864;12.086;2022-09-02T16:31:30;3.17;;;2.23;;
9288;SDS011;4683;50.864;12.086;2022-09-02T16:34:02;3.47;;;2.87;;
9288;SDS011;4683;50.864;12.086;2022-09-02T16:36:34;3.23;;;2.63;;
9288;SDS011;4683;50.864;12.086;2022-09-02T16:39:06;3.93;;;3.40;;
9288;SDS011;4683;50.864;12.086;2022-09-02T16:41:36;2.00;;;1.77;;
9288;SDS011;4683;50.864;12.086;2022-09-02T16:44:09;2.00;;;1.70;;
9288;SDS011;4683;50.864;12.086;2022-09-02T16:46:41;2.67;;;1.43;;
9288;SDS011;4683;50.864;12.086;2022-09-02T16:49:13;2.13;;;1.50;;
9288;SDS011;4683;50.864;12.086;2022-09-02T16:51:44;2.67;;;2.40;;
9288;SDS011;4683;50.864;12.086;2022-09-02T16:54:14;2.70;;;2.50;;
9288;SDS011;4683;50.864;12.086;2022-09-02T16:56:44;2.73;;;2.40;;
9288;SDS011;4683;50.864;12.086;2022-09-02T16:59:13;4.77;;;3.30;;
9288;SDS011;4683;50.864;12.086;2022-09-02T17:01:44;3.77;;;2.60;;
9288;SDS011;4683;50.864;12.086;2022-09-02T17:04:13;3.43;;;2.00;;
9288;SDS011;4683;50.864;12.086;2022-09-02T17:06:42;2.27;;;1.37;;
9288;SDS011;4683;50.864;12.086;2022-09-02T17:09:10;2.10;;;1.80;;
9288;SDS011;4683;50.864;12.086;2022-09-02T17:11:40;2.20;;;1.83;;